createdAt,value
2019-04-05T00:02:16.904Z,13.90
2019-04-05T00:04:47.643Z,14.53
2019-04-05T00:07:18.431Z,13.67
2019-04-05T00:09:49.132Z,13.63
2019-04-05T00:12:21.181Z,14.40
2019-04-05T00:14:52.569Z,13.27
2019-04-05T00:17:23.979Z,13.83
2019-04-05T00:19:54.640Z,13.60
2019-04-05T00:22:26.037Z,13.73
2019-04-05T00:24:56.324Z,13.40
2019-04-05T00:27:28.112Z,12.60
2019-04-05T00:29:58.948Z,13.60
2019-04-05T00:32:29.982Z,13.47
2019-04-05T00:35:00.292Z,14.67
2019-04-05T00:37:31.041Z,13.17
2019-04-05T00:40:03.080Z,14.03
2019-04-05T00:42:33.807Z,13.20
2019-04-05T00:45:04.509Z,13.00
2019-04-05T00:47:35.726Z,14.80
2019-04-05T00:50:09.323Z,13.40
2019-04-05T00:52:40.474Z,14.77
2019-04-05T00:55:11.846Z,13.73
2019-04-05T00:57:43.474Z,14.13
2019-04-05T01:00:16.241Z,13.30
2019-04-05T01:02:47.141Z,12.93
2019-04-05T01:05:17.914Z,14.20
2019-04-05T01:07:50.853Z,14.00
2019-04-05T01:10:22.593Z,15.47
2019-04-05T01:12:54.185Z,13.83
2019-04-05T01:15:25.580Z,14.50
2019-04-05T01:17:56.817Z,15.53
2019-04-05T01:20:30.111Z,13.93
2019-04-05T01:23:03.482Z,13.80
2019-04-05T01:25:39.055Z,14.03
2019-04-05T01:28:10.919Z,13.40
2019-04-05T01:30:41.767Z,13.47
2019-04-05T01:33:12.279Z,16.60
2019-04-05T01:35:44.014Z,14.50
2019-04-05T01:38:15.286Z,13.77
2019-04-05T01:40:47.474Z,15.93
2019-04-05T01:43:19.625Z,14.10
2019-04-05T01:45:53.901Z,15.37
2019-04-05T01:48:22.746Z,15.53
2019-04-05T01:50:53.137Z,12.90
2019-04-05T01:53:24.859Z,14.00
2019-04-05T01:55:56.406Z,15.53
2019-04-05T01:58:26.952Z,16.03
2019-04-05T02:00:58.793Z,14.70
2019-04-05T02:03:30.997Z,15.03
2019-04-05T02:06:02.286Z,16.07
2019-04-05T02:08:33.579Z,15.00
2019-04-05T02:11:03.963Z,15.60
2019-04-05T02:13:34.377Z,13.80
2019-04-05T02:16:06.627Z,13.30
2019-04-05T02:18:38.390Z,14.87
2019-04-05T02:21:09.922Z,15.10
2019-04-05T02:23:41.442Z,13.40
2019-04-05T02:26:12.839Z,15.00
2019-04-05T02:28:43.364Z,14.27
2019-04-05T02:31:14.504Z,14.77
2019-04-05T02:33:45.710Z,15.43
2019-04-05T02:36:16.461Z,14.60
2019-04-05T02:38:47.087Z,13.63
2019-04-05T02:41:19.509Z,14.43
2019-04-05T02:43:52.767Z,14.07
2019-04-05T02:46:24.536Z,15.97
2019-04-05T02:48:56.014Z,13.37
2019-04-05T02:51:31.925Z,14.80
2019-04-05T02:54:03.442Z,15.37
2019-04-05T02:56:34.979Z,15.13
2019-04-05T02:59:06.507Z,14.73
2019-04-05T03:01:37.513Z,15.90
2019-04-05T03:04:08.912Z,12.87
2019-04-05T03:06:40.064Z,15.57
2019-04-05T03:09:09.934Z,15.40
2019-04-05T03:11:42.986Z,14.63
2019-04-05T03:14:13.912Z,14.80
2019-04-05T03:16:47.210Z,15.03
2019-04-05T03:19:20.391Z,15.53
2019-04-05T03:21:53.162Z,15.33
2019-04-05T03:24:27.371Z,16.70
2019-04-05T03:27:01.215Z,16.20
2019-04-05T03:29:33.143Z,16.00
2019-04-05T03:32:04.374Z,16.07
2019-04-05T03:34:36.609Z,16.03
2019-04-05T03:37:08.190Z,16.80
2019-04-05T03:39:38.702Z,17.80
2019-04-05T03:42:09.846Z,16.90
2019-04-05T03:44:40.896Z,15.10
2019-04-05T03:47:12.762Z,15.40
2019-04-05T03:49:44.349Z,15.37
2019-04-05T03:52:16.029Z,17.60
2019-04-05T03:54:47.567Z,15.33
2019-04-05T03:57:19.503Z,15.70
2019-04-05T03:59:52.528Z,15.60
2019-04-05T04:02:24.001Z,15.23
2019-04-05T04:04:55.611Z,16.60
2019-04-05T04:07:27.143Z,16.67
2019-04-05T04:09:58.511Z,16.17
2019-04-05T04:12:29.574Z,17.03
2019-04-05T04:15:02.868Z,16.30
2019-04-05T04:17:34.018Z,17.00
2019-04-05T04:20:05.486Z,14.30
2019-04-05T04:22:36.837Z,16.43
2019-04-05T04:25:08.041Z,14.90
2019-04-05T04:27:39.418Z,16.83
2019-04-05T04:30:09.979Z,17.00
2019-04-05T04:32:40.201Z,15.93
2019-04-05T04:35:09.670Z,17.10
2019-04-05T04:37:39.927Z,18.10
2019-04-05T04:40:11.521Z,17.67
2019-04-05T04:42:41.920Z,16.50
2019-04-05T04:45:12.876Z,18.37
2019-04-05T04:47:42.741Z,15.17
2019-04-05T04:50:13.167Z,15.33
2019-04-05T04:52:43.590Z,14.83
2019-04-05T04:55:13.657Z,16.83
2019-04-05T04:57:44.579Z,16.30
2019-04-05T05:00:15.266Z,16.33
2019-04-05T05:02:44.899Z,16.17
2019-04-05T05:05:15.065Z,15.47
2019-04-05T05:07:45.233Z,16.17
2019-04-05T05:10:15.871Z,14.13
2019-04-05T05:12:46.629Z,16.27
2019-04-05T05:15:16.171Z,15.87
2019-04-05T05:17:57.941Z,15.70
2019-04-05T05:20:19.158Z,16.17
2019-04-05T05:22:49.048Z,15.30
2019-04-05T05:25:18.763Z,16.90
2019-04-05T05:27:48.654Z,15.20
2019-04-05T05:30:18.405Z,15.20
2019-04-05T05:32:49.188Z,15.80
2019-04-05T05:35:19.840Z,14.93
2019-04-05T05:37:49.316Z,15.93
2019-04-05T05:40:20.053Z,15.10
2019-04-05T05:42:49.765Z,16.37
2019-04-05T05:45:19.667Z,16.90
2019-04-05T05:47:52.021Z,16.50
2019-04-05T05:50:20.774Z,17.20
2019-04-05T05:52:50.601Z,18.37
2019-04-05T05:55:20.623Z,16.17
2019-04-05T05:57:54.293Z,14.13
2019-04-05T06:00:23.181Z,14.80
2019-04-05T06:02:53.030Z,14.63
2019-04-05T06:05:23.596Z,16.00
2019-04-05T06:07:53.249Z,14.13
2019-04-05T06:10:23.328Z,13.60
2019-04-05T06:12:52.803Z,13.53
2019-04-05T06:15:23.231Z,14.33
2019-04-05T06:20:23.448Z,13.53
2019-04-05T06:22:53.209Z,14.37
2019-04-05T06:25:23.953Z,14.07
2019-04-05T06:27:54.486Z,14.43
2019-04-05T06:30:24.003Z,14.83
2019-04-05T06:32:53.750Z,13.47
2019-04-05T06:35:23.724Z,13.33
2019-04-05T06:35:39.483Z,12.60
2019-04-05T06:37:53.018Z,15.10
2019-04-05T06:40:23.395Z,14.67
2019-04-05T06:42:53.217Z,13.90
2019-04-05T06:45:23.236Z,13.57
2019-04-05T06:47:53.035Z,13.63
2019-04-05T06:50:22.274Z,13.30
2019-04-05T06:52:52.173Z,13.63
2019-04-05T06:55:21.326Z,13.67
2019-04-05T06:57:51.317Z,11.67
2019-04-05T07:00:24.062Z,13.60
2019-04-05T07:02:53.678Z,13.50
2019-04-05T07:05:23.855Z,11.70
2019-04-05T07:07:53.022Z,10.40
2019-04-05T07:10:22.123Z,12.07
2019-04-05T07:12:51.138Z,11.90
2019-04-05T07:15:20.255Z,11.70
2019-04-05T07:17:49.600Z,12.57
2019-04-05T07:20:18.725Z,11.67
2019-04-05T07:22:48.267Z,10.50
2019-04-05T07:25:18.165Z,11.30
2019-04-05T07:27:48.005Z,12.50
2019-04-05T07:30:17.602Z,11.73
2019-04-05T07:32:47.237Z,11.30
2019-04-05T07:35:17.013Z,11.93
2019-04-05T07:37:46.169Z,12.77
2019-04-05T07:40:15.663Z,11.47
2019-04-05T07:42:45.145Z,12.47
2019-04-05T07:45:15.241Z,11.27
2019-04-05T07:47:45.162Z,11.67
2019-04-05T07:50:14.979Z,12.50
2019-04-05T07:52:44.442Z,14.57
2019-04-05T07:55:14.724Z,13.27
2019-04-05T07:57:44.058Z,11.40
2019-04-05T08:00:32.601Z,10.57
2019-04-05T08:03:01.780Z,12.13
2019-04-05T08:05:31.628Z,11.90
2019-04-05T08:08:03.457Z,11.70
2019-04-05T08:10:32.886Z,12.77
2019-04-05T08:13:04.326Z,11.63
2019-04-05T08:15:34.036Z,9.57
2019-04-05T08:18:03.556Z,9.50
2019-04-05T08:20:32.853Z,10.53
2019-04-05T08:23:02.515Z,7.90
2019-04-05T08:25:31.789Z,8.43
2019-04-05T08:28:01.026Z,7.93
2019-04-05T08:30:30.575Z,8.33
2019-04-05T08:33:01.964Z,9.40
2019-04-05T08:35:30.995Z,7.57
2019-04-05T08:38:01.126Z,7.87
2019-04-05T08:40:31.769Z,5.20
2019-04-05T08:43:01.216Z,5.67
2019-04-05T08:45:30.811Z,5.20
2019-04-05T08:48:00.597Z,5.83
2019-04-05T08:50:29.714Z,7.67
2019-04-05T08:53:01.462Z,6.53
2019-04-05T08:55:31.548Z,5.37
2019-04-05T08:58:00.918Z,6.23
2019-04-05T09:00:31.220Z,6.50
2019-04-05T09:03:00.769Z,6.30
2019-04-05T09:05:33.141Z,6.43
2019-04-05T09:08:01.495Z,6.50
2019-04-05T09:10:31.523Z,6.60
2019-04-05T09:13:00.776Z,7.90
2019-04-05T09:15:30.214Z,6.90
2019-04-05T09:17:59.650Z,7.50
2019-04-05T09:20:29.046Z,7.93
2019-04-05T09:22:58.160Z,7.40
2019-04-05T09:25:28.015Z,8.40
2019-04-05T09:27:57.311Z,7.97
2019-04-05T09:30:26.641Z,7.73
2019-04-05T09:32:56.429Z,8.00
2019-04-05T09:35:26.270Z,7.67
2019-04-05T09:37:56.142Z,8.30
2019-04-05T09:40:25.784Z,8.30
2019-04-05T09:42:54.950Z,7.60
2019-04-05T09:45:24.947Z,7.10
2019-04-05T09:47:54.391Z,8.63
2019-04-05T09:50:23.443Z,8.60
2019-04-05T09:52:53.487Z,8.00
2019-04-05T09:55:22.665Z,8.67
2019-04-05T09:57:52.298Z,9.03
2019-04-05T10:00:25.316Z,8.07
2019-04-05T10:02:55.333Z,8.53
2019-04-05T10:05:24.889Z,8.10
2019-04-05T10:07:55.926Z,7.83
2019-04-05T10:10:25.872Z,9.83
2019-04-05T10:12:55.861Z,8.07
2019-04-05T10:15:25.216Z,8.90
2019-04-05T10:17:54.435Z,7.20
2019-04-05T10:20:24.081Z,8.20
2019-04-05T10:22:54.581Z,7.93
2019-04-05T10:25:25.077Z,8.97
2019-04-05T10:27:54.422Z,8.70
2019-04-05T10:30:24.455Z,8.80
2019-04-05T10:32:53.586Z,8.47
2019-04-05T10:35:22.892Z,8.77
2019-04-05T10:37:52.879Z,7.80
2019-04-05T10:40:22.581Z,7.90
2019-04-05T10:42:52.859Z,9.37
2019-04-05T10:45:22.241Z,8.40
2019-04-05T10:47:51.034Z,8.47
2019-04-05T10:50:20.404Z,8.83
2019-04-05T10:52:50.183Z,8.70
2019-04-05T10:55:20.314Z,10.23
2019-04-05T10:57:49.900Z,9.73
2019-04-05T11:00:21.369Z,9.13
2019-04-05T11:02:51.262Z,9.70
2019-04-05T11:05:20.524Z,9.90
2019-04-05T11:07:50.853Z,7.87
2019-04-05T11:10:20.169Z,7.97
2019-04-05T11:12:50.457Z,9.80
2019-04-05T11:15:21.293Z,8.60
2019-04-05T11:17:50.587Z,8.73
2019-04-05T11:20:22.187Z,9.10
2019-04-05T11:22:52.259Z,8.13
2019-04-05T11:25:22.297Z,9.10
2019-04-05T11:27:53.876Z,8.40
2019-04-05T11:30:45.275Z,8.80
2019-04-05T11:33:19.245Z,8.70
2019-04-05T11:35:47.338Z,8.27
2019-04-05T11:38:17.235Z,9.30
2019-04-05T11:40:47.051Z,9.43
2019-04-05T11:43:17.897Z,7.73
2019-04-05T11:45:48.547Z,9.60
2019-04-05T11:48:19.395Z,8.53
2019-04-05T11:50:48.982Z,9.40
2019-04-05T11:53:21.765Z,8.70
2019-04-05T11:55:50.958Z,10.50
2019-04-05T11:58:20.556Z,8.40
2019-04-05T12:00:54.268Z,8.90
2019-04-05T12:03:34.666Z,9.60
2019-04-05T12:06:04.320Z,8.87
2019-04-05T12:08:34.454Z,10.53
2019-04-05T12:11:04.129Z,8.90
2019-04-05T12:13:34.245Z,9.40
2019-04-05T12:16:06.097Z,9.77
2019-04-05T12:18:36.271Z,8.00
2019-04-05T12:21:05.965Z,10.73
2019-04-05T12:23:35.811Z,9.53
2019-04-05T12:26:05.132Z,11.00
2019-04-05T12:28:34.830Z,9.70
2019-04-05T12:31:04.209Z,10.77
2019-04-05T12:33:34.038Z,9.20
2019-04-05T12:36:04.585Z,9.77
2019-04-05T12:38:34.277Z,11.13
2019-04-05T12:41:05.164Z,10.73
2019-04-05T12:43:34.352Z,9.80
2019-04-05T12:46:05.020Z,9.47
2019-04-05T12:48:34.552Z,9.20
2019-04-05T12:51:05.553Z,10.67
2019-04-05T12:53:35.582Z,9.73
2019-04-05T12:56:05.733Z,11.33
2019-04-05T12:58:35.065Z,10.90
2019-04-05T13:01:04.816Z,10.97
2019-04-05T13:03:35.482Z,10.40
2019-04-05T13:06:05.846Z,10.33
2019-04-05T13:08:35.347Z,10.03
2019-04-05T13:11:05.023Z,11.10
2019-04-05T13:13:34.578Z,9.30
2019-04-05T13:16:04.398Z,11.50
2019-04-05T13:18:33.853Z,10.30
2019-04-05T13:21:14.333Z,11.00
2019-04-05T13:23:35.994Z,10.53
2019-04-05T13:26:06.404Z,11.90
2019-04-05T13:28:38.402Z,13.17
2019-04-05T13:31:07.848Z,13.97
2019-04-05T13:33:38.146Z,12.73
2019-04-05T13:36:08.600Z,12.77
2019-04-05T13:38:38.782Z,12.70
2019-04-05T13:41:08.534Z,12.87
2019-04-05T13:43:38.907Z,13.03
2019-04-05T13:46:21.029Z,15.00
2019-04-05T13:48:40.756Z,15.20
2019-04-05T13:51:12.873Z,13.80
2019-04-05T13:53:41.524Z,14.30
2019-04-05T13:56:11.166Z,14.73
2019-04-05T13:58:40.895Z,13.67
2019-04-05T14:01:10.826Z,15.90
2019-04-05T14:03:40.183Z,15.07
2019-04-05T14:06:10.885Z,15.90
2019-04-05T14:08:41.846Z,15.60
2019-04-05T14:11:11.672Z,15.90
2019-04-05T14:13:42.833Z,17.00
2019-04-05T14:16:13.552Z,15.00
2019-04-05T14:18:49.398Z,17.23
2019-04-05T14:21:14.750Z,15.97
2019-04-05T14:23:44.244Z,16.30
2019-04-05T14:26:14.396Z,16.30
2019-04-05T14:28:45.158Z,17.00
2019-04-05T14:31:15.666Z,15.73
2019-04-05T14:33:45.927Z,17.80
2019-04-05T14:36:15.568Z,15.97
2019-04-05T14:38:44.995Z,14.07
2019-04-05T14:41:16.152Z,16.47
2019-04-05T14:43:46.165Z,16.70
2019-04-05T14:46:15.951Z,13.93
2019-04-05T14:48:46.060Z,14.67
2019-04-05T14:51:16.255Z,17.67
2019-04-05T14:53:45.365Z,15.93
2019-04-05T14:56:14.731Z,15.67
2019-04-05T14:58:44.747Z,15.37
2019-04-05T15:01:15.552Z,16.40
2019-04-05T15:03:46.623Z,15.53
2019-04-05T15:06:16.402Z,15.27
2019-04-05T15:08:47.935Z,15.30
2019-04-05T15:11:17.911Z,15.60
2019-04-05T15:13:47.855Z,16.10
2019-04-05T15:16:17.952Z,15.63
2019-04-05T15:18:48.041Z,16.57
2019-04-05T15:21:18.324Z,14.13
2019-04-05T15:23:48.012Z,16.50
2019-04-05T15:26:20.490Z,16.60
2019-04-05T15:28:54.602Z,16.30
2019-04-05T15:31:25.746Z,17.57
2019-04-05T15:33:55.619Z,17.27
2019-04-05T15:36:26.529Z,17.47
2019-04-05T15:38:55.926Z,17.77
2019-04-05T15:41:26.971Z,18.90
2019-04-05T15:43:56.532Z,16.47
2019-04-05T15:46:27.682Z,17.40
2019-04-05T15:48:57.339Z,17.97
2019-04-05T15:51:27.531Z,18.80
2019-04-05T15:54:01.130Z,17.00
2019-04-05T15:56:29.249Z,17.07
2019-04-05T15:59:01.494Z,18.87
2019-04-05T16:01:34.223Z,20.47
2019-04-05T16:04:03.429Z,20.30
2019-04-05T16:06:33.186Z,19.70
2019-04-05T16:09:02.155Z,18.57
2019-04-05T16:11:31.865Z,20.27
2019-04-05T16:14:01.622Z,18.67
2019-04-05T16:16:31.692Z,20.47
2019-04-05T16:19:01.541Z,20.10
2019-04-05T16:21:31.589Z,19.60
2019-04-05T16:24:01.197Z,19.27
2019-04-05T16:26:30.844Z,18.13
2019-04-05T16:29:01.496Z,21.03
2019-04-05T16:31:32.752Z,20.20
2019-04-05T16:34:02.162Z,16.30
2019-04-05T16:36:31.687Z,17.60
2019-04-05T16:39:03.841Z,15.57
2019-04-05T16:41:33.662Z,16.97
2019-04-05T16:44:03.519Z,19.80
2019-04-05T16:46:33.559Z,17.90
2019-04-05T16:49:02.808Z,18.20
2019-04-05T16:51:32.335Z,18.83
2019-04-05T16:54:02.728Z,18.07
2019-04-05T16:56:32.820Z,23.83
2019-04-05T16:59:02.500Z,20.40
2019-04-05T17:01:32.757Z,16.87
2019-04-05T17:04:01.810Z,18.57
2019-04-05T17:06:31.296Z,18.37
2019-04-05T17:09:01.135Z,16.23
2019-04-05T17:11:30.966Z,17.27
2019-04-05T17:14:00.370Z,15.67
2019-04-05T17:16:30.181Z,16.70
2019-04-05T17:19:00.696Z,16.60
2019-04-05T17:21:30.964Z,16.80
2019-04-05T17:24:00.643Z,18.50
2019-04-05T17:26:29.940Z,17.50
2019-04-05T17:28:59.948Z,17.83
2019-04-05T17:31:30.055Z,17.10
2019-04-05T17:34:00.310Z,16.43
2019-04-05T17:36:29.844Z,17.23
2019-04-05T17:38:59.257Z,16.90
2019-04-05T17:41:29.454Z,16.00
2019-04-05T17:43:59.065Z,17.57
2019-04-05T17:46:29.499Z,17.03
2019-04-05T17:48:59.211Z,17.10
2019-04-05T17:51:28.516Z,17.07
2019-04-05T17:53:58.179Z,17.73
2019-04-05T17:56:27.822Z,18.77
2019-04-05T17:58:57.976Z,17.80
2019-04-05T18:01:27.299Z,19.07
2019-04-05T18:03:57.151Z,17.17
2019-04-05T18:06:27.100Z,18.30
2019-04-05T18:08:56.386Z,16.33
2019-04-05T18:11:26.748Z,17.23
2019-04-05T18:13:57.897Z,18.10
2019-04-05T18:16:27.238Z,16.80
2019-04-05T18:18:56.636Z,17.37
2019-04-05T18:21:26.076Z,16.47
2019-04-05T18:23:56.375Z,16.07
2019-04-05T18:26:26.193Z,20.20
2019-04-05T18:28:55.099Z,16.80
2019-04-05T18:31:26.066Z,15.90
2019-04-05T18:33:56.108Z,19.37
2019-04-05T18:36:25.853Z,17.47
2019-04-05T18:38:55.348Z,17.00
2019-04-05T18:41:24.869Z,18.60
2019-04-05T18:43:54.191Z,17.60
2019-04-05T18:46:23.740Z,17.53
2019-04-05T18:48:53.289Z,17.77
2019-04-05T18:51:24.058Z,17.63
2019-04-05T18:53:53.676Z,16.90
2019-04-05T18:56:23.455Z,17.90
2019-04-05T18:58:53.698Z,21.57
2019-04-05T19:01:23.758Z,20.07
2019-04-05T19:03:53.772Z,19.17
2019-04-05T19:06:23.372Z,21.47
2019-04-05T19:08:53.251Z,19.37
2019-04-05T19:11:22.702Z,20.70
2019-04-05T19:14:00.880Z,22.40
2019-04-05T19:16:23.017Z,24.43
2019-04-05T19:18:52.730Z,23.80
2019-04-05T19:21:23.772Z,21.10
2019-04-05T19:23:53.850Z,22.30
2019-04-05T19:26:23.212Z,20.87
2019-04-05T19:28:52.344Z,22.90
2019-04-05T19:49:02.460Z,22.30
2019-04-05T19:51:32.497Z,23.10
2019-04-05T19:54:02.770Z,27.60
2019-04-05T19:56:33.417Z,23.77
2019-04-05T19:59:03.027Z,25.87
2019-04-05T20:01:33.346Z,24.60
2019-04-05T20:04:02.538Z,20.77
2019-04-05T20:06:32.214Z,20.73
2019-04-05T20:09:02.002Z,21.80
2019-04-05T20:11:32.308Z,19.10
2019-04-05T20:14:03.492Z,20.33
2019-04-05T20:16:33.469Z,18.27
2019-04-05T20:19:04.762Z,20.77
2019-04-05T20:21:35.433Z,19.83
2019-04-05T20:24:13.680Z,22.37
2019-04-05T20:26:35.921Z,21.00
2019-04-05T20:29:05.275Z,22.70
2019-04-05T20:31:35.100Z,21.70
2019-04-05T20:34:04.752Z,27.20
2019-04-05T20:36:34.740Z,26.97
2019-04-05T20:39:06.944Z,29.70
2019-04-05T20:41:36.108Z,37.20
2019-04-05T20:44:07.549Z,30.20
2019-04-05T20:46:38.222Z,27.63
2019-04-05T20:49:09.438Z,25.90
2019-04-05T20:51:39.783Z,24.03
2019-04-05T20:54:09.869Z,20.90
2019-04-05T20:56:41.039Z,22.60
2019-04-05T20:59:11.150Z,21.33
2019-04-05T21:01:41.586Z,22.90
2019-04-05T21:04:11.847Z,21.37
2019-04-05T21:06:41.275Z,22.20
2019-04-05T21:09:11.945Z,23.00
2019-04-05T21:11:42.931Z,23.83
2019-04-05T21:14:13.740Z,22.50
2019-04-05T21:16:44.277Z,21.57
2019-04-05T21:19:14.696Z,20.70
2019-04-05T21:21:43.844Z,21.97
2019-04-05T21:24:13.492Z,20.43
2019-04-05T21:26:44.091Z,23.10
2019-04-05T21:29:15.687Z,20.40
2019-04-05T21:31:45.803Z,22.23
2019-04-05T21:34:16.455Z,20.60
2019-04-05T21:36:46.382Z,19.80
2019-04-05T21:39:16.500Z,21.77
2019-04-05T21:41:46.849Z,19.73
2019-04-05T21:44:17.671Z,19.83
2019-04-05T21:46:47.458Z,21.87
2019-04-05T21:49:18.138Z,19.60
2019-04-05T21:51:47.871Z,20.20
2019-04-05T21:54:17.587Z,20.17
2019-04-05T21:56:47.342Z,20.13
2019-04-05T21:59:16.530Z,20.43
2019-04-05T22:01:46.649Z,20.20
2019-04-05T22:04:16.135Z,19.83
2019-04-05T22:06:47.465Z,19.60
2019-04-05T22:09:18.006Z,20.53
2019-04-05T22:11:48.530Z,20.73
2019-04-05T22:14:20.278Z,19.13
2019-04-05T22:16:49.789Z,20.23
2019-04-05T22:19:21.286Z,20.73
2019-04-05T22:21:51.012Z,21.40
2019-04-05T22:24:20.981Z,22.33
2019-04-05T22:26:52.813Z,19.03
2019-04-05T22:29:23.526Z,19.27
2019-04-05T22:31:53.573Z,20.17
2019-04-05T22:34:22.840Z,23.27
2019-04-05T22:36:53.304Z,25.30
2019-04-05T22:39:24.089Z,24.10
2019-04-05T22:41:53.766Z,22.40
2019-04-05T22:44:25.651Z,21.43
2019-04-05T22:46:56.035Z,25.33
2019-04-05T22:49:26.510Z,22.40
2019-04-05T22:51:56.309Z,22.43
2019-04-05T22:54:27.391Z,21.97
2019-04-05T22:56:57.753Z,21.50
2019-04-05T22:59:27.728Z,21.70
2019-04-05T23:01:57.926Z,21.27
2019-04-05T23:04:27.044Z,20.80
2019-04-05T23:06:57.665Z,21.37
2019-04-05T23:09:27.610Z,20.13
2019-04-05T23:11:57.207Z,21.00
2019-04-05T23:14:26.920Z,20.33
2019-04-05T23:16:57.638Z,19.00
2019-04-05T23:19:27.285Z,20.67
2019-04-05T23:21:57.932Z,20.00
2019-04-05T23:24:27.964Z,20.03
2019-04-05T23:26:59.002Z,21.10
2019-04-05T23:29:30.205Z,19.70
2019-04-05T23:32:00.906Z,19.37
2019-04-05T23:34:31.722Z,19.33
2019-04-05T23:37:02.778Z,20.70
2019-04-05T23:39:32.743Z,20.90
2019-04-05T23:42:02.966Z,19.60
2019-04-05T23:44:32.632Z,19.30
2019-04-05T23:47:03.570Z,19.67
2019-04-05T23:49:34.778Z,21.17
2019-04-05T23:52:04.696Z,20.90
2019-04-05T23:54:34.726Z,21.87
2019-04-05T23:57:05.977Z,20.40
2019-04-05T23:59:35.448Z,21.87
